イルクーツク の空港の天気 - METARとTAF

イルクーツク国際空港 ( UIII / IKT ) - ロシア イルクーツク
飛行場実況気象(Metar)
観測時間12/01 00:30 IRKT (11/30 16:30 UTC)
風向・風速不定 1m/s
視程10km以上
天気現象弱いしゅう雪
全天の4割程度の雲 雲底高度 1520m
気温-15℃
湿度72%
気圧1033hPa
METARUIII 301630Z VRB01MPS 9999 -SHSN SCT050CB M15/M19 Q1033 R30/490538 NOSIG RMK QFE729/0972
過去の天気等 Google飛行場航空写真 Wunderground天気予報

過去48時間のMETAR

飛行場予報(TAF)
発表時間: 11/30 22:00 IRKT (11/30 14:00 UTC)
予報対象時間: 30日23時 IRKT ~ 1日23時 IRKT
風向・風速西 3m/s
視程10km以上
天気現象弱いしゅう雪
全天の4割程度の積乱雲 雲底高度 1220m
30日23時 IRKT ~ 1日11時 IRKT に一時的に
視程1200m
天気現象しゅう雪 もや
TAF UIII 301400Z 3015/0115 28003MPS 9999 -SHSN SCT040CB
TEMPO 3015/0103 1200 SHSN BR